Carbonear, Canada
Current Conditions -  °F | °C
As of 9:00 PM on Friday 19 Dec 2014 (Local Time) from CYYT Reporting Station
Scattered Clouds Scattered Clouds  
Wind Chill: 24°   Ceiling: Unl
Heat Index: 36°   Visibility: 15mi
Dew Point: 32°   Wind: 23mph
Humidity: 87%   Direction: 250°WSW
Pressure: 29.63"   Gusts: 31mph
Location:  47.73°N, 53.25°W
Report Text: CYYT 200000Z 25020G27KT 15SM SCT020 02/M00 A2963 RMK SC3 SLP040
Loading
Personal Weather Stations






























Interactive Weather Map New forecast layout! Learn more

10-Day Weather Forecast

Advertisements
Track Severe Weather on mobile